Time;durP1;ratioP1;P1;durP2;ratioP2;P2;SDS_P1;SDS_P2;PMS_P1;PMS_P2;Temp;Humidity;BMP_temperature;BMP_pressure;BME280_temperature;BME280_humidity;BME280_pressure;Samples;Min_cycle;Max_cycle;Signal;HPM_P1;HPM_P2
2022/02/20 00:01:11;;;;;;;115.03;68.45;;;;;;;;;;4987724;28;20110;-66
2022/02/20 00:03:37;;;;;;;112.88;67.93;;;;;;;;;;4990640;28;20027;-66
2022/02/20 00:06:04;;;;;;;116.20;67.90;;;;;;;;;;4990507;28;20111;-66
2022/02/20 00:08:30;;;;;;;108.43;65.88;;;;;;;;;;4991290;28;20086;-66
2022/02/20 00:11:01;;;;;;;117.68;68.53;;;;;;;;;;4989396;28;20495;-66
2022/02/20 00:13:27;;;;;;;114.30;68.45;;;;;;;;;;4990665;28;20076;-66
2022/02/20 00:15:53;;;;;;;115.93;67.72;;;;;;;;;;4988443;28;20029;-65
2022/02/20 00:18:20;;;;;;;116.63;67.50;;;;;;;;;;4989806;28;20388;-66
2022/02/20 00:20:46;;;;;;;119.93;68.15;;;;;;;;;;4988796;28;20031;-66
2022/02/20 00:23:15;;;;;;;121.38;68.38;;;;;;;;;;4987631;28;20033;-66
2022/02/20 00:25:42;;;;;;;128.27;71.68;;;;;;;;;;4990522;28;20034;-66
2022/02/20 00:28:08;;;;;;;114.97;70.30;;;;;;;;;;4988325;28;20180;-66
2022/02/20 00:30:34;;;;;;;120.53;68.38;;;;;;;;;;4987607;28;20060;-66
2022/02/20 00:33:00;;;;;;;111.82;65.03;;;;;;;;;;4987614;28;20039;-66
2022/02/20 00:35:30;;;;;;;117.93;68.60;;;;;;;;;;4989377;28;20032;-66
2022/02/20 00:37:56;;;;;;;117.80;68.72;;;;;;;;;;4988631;28;20057;-66
2022/02/20 00:40:22;;;;;;;118.35;69.38;;;;;;;;;;4989931;28;20495;-66
2022/02/20 00:42:48;;;;;;;114.88;66.57;;;;;;;;;;4989570;28;20042;-66
2022/02/20 00:45:14;;;;;;;114.03;66.25;;;;;;;;;;4988737;28;20067;-66
2022/02/20 00:47:40;;;;;;;110.57;64.47;;;;;;;;;;4988863;28;20357;-66
2022/02/20 00:50:07;;;;;;;111.85;62.60;;;;;;;;;;4990722;28;20027;-66
2022/02/20 00:52:33;;;;;;;107.85;65.05;;;;;;;;;;4986107;28;20034;-66
2022/02/20 00:54:59;;;;;;;109.40;65.22;;;;;;;;;;4990512;28;20026;-66
2022/02/20 00:57:25;;;;;;;114.43;66.78;;;;;;;;;;4982221;28;20022;-66
2022/02/20 00:59:52;;;;;;;111.13;65.18;;;;;;;;;;4988965;28;20054;-66
2022/02/20 01:02:18;;;;;;;108.53;63.63;;;;;;;;;;4987157;28;20023;-66
2022/02/20 01:04:44;;;;;;;112.93;66.13;;;;;;;;;;4989355;28;20027;-66
2022/02/20 01:07:11;;;;;;;107.97;66.18;;;;;;;;;;4987593;28;20526;-66
2022/02/20 01:09:37;;;;;;;114.95;66.32;;;;;;;;;;4988737;28;20026;-66
2022/02/20 01:12:03;;;;;;;107.88;64.82;;;;;;;;;;4988409;28;20160;-66
2022/02/20 01:14:29;;;;;;;116.82;66.13;;;;;;;;;;4990554;28;20022;-66
2022/02/20 01:16:55;;;;;;;114.45;67.65;;;;;;;;;;4988132;28;20090;-66
2022/02/20 01:19:21;;;;;;;109.75;63.63;;;;;;;;;;4990352;28;20034;-66
2022/02/20 01:21:47;;;;;;;112.88;65.47;;;;;;;;;;4978225;28;20380;-66
2022/02/20 01:24:14;;;;;;;114.45;64.75;;;;;;;;;;4990192;28;20247;-66
2022/02/20 01:26:41;;;;;;;113.25;65.80;;;;;;;;;;4986698;28;20030;-66
2022/02/20 01:29:07;;;;;;;115.25;67.68;;;;;;;;;;4987826;28;20041;-66
2022/02/20 01:31:34;;;;;;;113.55;66.40;;;;;;;;;;4985809;28;20027;-66
2022/02/20 01:34:00;;;;;;;117.90;69.07;;;;;;;;;;4987486;28;20105;-66
2022/02/20 01:36:26;;;;;;;117.72;68.03;;;;;;;;;;4988077;28;20488;-66
2022/02/20 01:38:52;;;;;;;120.20;70.25;;;;;;;;;;4975958;28;20058;-66
2022/02/20 01:41:19;;;;;;;120.68;70.20;;;;;;;;;;4987332;28;20022;-66
2022/02/20 01:43:46;;;;;;;120.78;68.53;;;;;;;;;;4987839;28;20565;-66
2022/02/20 01:46:12;;;;;;;121.15;72.03;;;;;;;;;;4989501;28;20019;-66
2022/02/20 01:48:48;;;;;;;116.18;66.50;;;;;;;;;;4992122;28;20045;-66
2022/02/20 01:51:15;;;;;;;118.03;65.78;;;;;;;;;;4984179;28;20080;-66
2022/02/20 01:53:41;;;;;;;114.07;67.10;;;;;;;;;;4975784;28;20349;-66
2022/02/20 01:56:07;;;;;;;112.82;65.43;;;;;;;;;;4981752;28;20109;-66
2022/02/20 01:58:33;;;;;;;102.13;59.90;;;;;;;;;;4987339;28;20031;-65
2022/02/20 02:01:00;;;;;;;104.38;63.47;;;;;;;;;;4993436;28;20065;-66
2022/02/20 02:03:26;;;;;;;115.72;65.78;;;;;;;;;;4991605;28;20081;-66
2022/02/20 02:05:52;;;;;;;107.50;63.55;;;;;;;;;;4984825;28;20503;-66
2022/02/20 02:08:19;;;;;;;113.95;65.72;;;;;;;;;;4987015;28;20047;-66
2022/02/20 02:10:46;;;;;;;108.72;66.13;;;;;;;;;;4975121;28;20030;-65
2022/02/20 02:13:12;;;;;;;107.15;63.78;;;;;;;;;;4988198;28;20109;-66
2022/02/20 02:15:51;;;;;;;101.70;62.55;;;;;;;;;;4991734;28;20033;-66
2022/02/20 02:18:18;;;;;;;109.97;63.03;;;;;;;;;;4985548;28;20030;-66
2022/02/20 02:20:44;;;;;;;106.15;63.40;;;;;;;;;;4992900;28;20019;-67
2022/02/20 02:23:10;;;;;;;115.40;65.25;;;;;;;;;;4990457;28;20030;-66
2022/02/20 02:25:37;;;;;;;109.88;64.63;;;;;;;;;;4992227;28;20027;-66
2022/02/20 02:28:03;;;;;;;109.40;65.07;;;;;;;;;;4991914;28;20039;-66
2022/02/20 02:30:29;;;;;;;114.07;65.20;;;;;;;;;;4979865;28;20035;-66
2022/02/20 02:32:55;;;;;;;110.63;64.28;;;;;;;;;;4989645;28;20022;-66
2022/02/20 02:35:21;;;;;;;109.60;66.13;;;;;;;;;;4992550;28;20488;-66
2022/02/20 02:37:47;;;;;;;116.13;68.57;;;;;;;;;;4984366;28;20034;-66
2022/02/20 02:40:13;;;;;;;116.50;68.15;;;;;;;;;;4992328;28;20030;-66
2022/02/20 02:42:39;;;;;;;112.82;66.40;;;;;;;;;;4992033;28;20376;-66
2022/02/20 02:45:06;;;;;;;117.25;67.03;;;;;;;;;;4991679;28;20069;-66
2022/02/20 02:47:32;;;;;;;116.80;67.07;;;;;;;;;;4981622;28;20049;-66
2022/02/20 02:49:58;;;;;;;113.75;66.18;;;;;;;;;;4986913;28;20099;-66
2022/02/20 02:52:24;;;;;;;111.20;66.95;;;;;;;;;;4984695;28;20039;-65
2022/02/20 02:54:50;;;;;;;106.40;63.78;;;;;;;;;;4986372;28;20117;-66
2022/02/20 02:57:16;;;;;;;115.00;65.25;;;;;;;;;;4990443;28;20031;-66
2022/02/20 02:59:42;;;;;;;116.18;66.63;;;;;;;;;;4992248;28;20047;-65
2022/02/20 03:02:08;;;;;;;112.70;64.72;;;;;;;;;;4986606;28;20027;-66
2022/02/20 03:04:35;;;;;;;108.32;64.82;;;;;;;;;;4991165;28;20495;-66
2022/02/20 03:07:01;;;;;;;108.45;63.70;;;;;;;;;;4988824;28;20073;-66
2022/02/20 03:09:27;;;;;;;115.20;66.95;;;;;;;;;;4976926;28;20031;-66
2022/02/20 03:11:53;;;;;;;111.93;65.60;;;;;;;;;;4989460;28;20033;-66
2022/02/20 03:14:19;;;;;;;109.75;65.07;;;;;;;;;;4991198;28;20037;-66
2022/02/20 03:16:46;;;;;;;116.63;64.57;;;;;;;;;;4990167;28;20058;-66
2022/02/20 03:19:12;;;;;;;106.30;63.83;;;;;;;;;;4992159;28;20095;-65
2022/02/20 03:21:38;;;;;;;119.28;67.00;;;;;;;;;;4990475;28;20388;-66
2022/02/20 03:24:05;;;;;;;111.22;63.55;;;;;;;;;;4987752;28;20058;-66
2022/02/20 03:26:31;;;;;;;115.82;65.30;;;;;;;;;;4986692;28;20042;-66
2022/02/20 03:28:57;;;;;;;113.85;65.20;;;;;;;;;;4988652;28;20042;-66
2022/02/20 03:31:24;;;;;;;110.05;65.80;;;;;;;;;;4987316;28;20038;-66
2022/02/20 03:33:50;;;;;;;116.47;67.35;;;;;;;;;;4987836;28;20035;-66
2022/02/20 03:36:28;;;;;;;122.70;69.45;;;;;;;;;;4988791;28;20042;-66
2022/02/20 03:38:54;;;;;;;116.05;64.25;;;;;;;;;;4980936;28;20088;-65
2022/02/20 03:41:20;;;;;;;112.15;63.25;;;;;;;;;;4989258;28;20034;-66
2022/02/20 03:43:46;;;;;;;114.82;65.32;;;;;;;;;;4981358;28;20040;-66
2022/02/20 03:46:12;;;;;;;115.75;65.38;;;;;;;;;;4983740;28;20079;-66
2022/02/20 03:48:38;;;;;;;113.63;64.63;;;;;;;;;;4969768;28;20047;-66
2022/02/20 03:51:05;;;;;;;116.15;63.75;;;;;;;;;;4988150;28;20039;-66
2022/02/20 03:53:31;;;;;;;114.60;66.45;;;;;;;;;;4979576;28;20031;-66
2022/02/20 03:56:09;;;;;;;114.72;63.95;;;;;;;;;;4988043;28;20101;-66
2022/02/20 03:58:37;;;;;;;114.15;63.17;;;;;;;;;;4982173;28;20033;-65
2022/02/20 04:01:03;;;;;;;109.53;63.40;;;;;;;;;;4988017;28;20038;-66
2022/02/20 04:03:29;;;;;;;107.82;61.22;;;;;;;;;;4986199;28;20037;-66
2022/02/20 04:05:55;;;;;;;111.88;61.67;;;;;;;;;;4988657;28;20018;-65
2022/02/20 04:08:21;;;;;;;108.47;59.92;;;;;;;;;;4983390;28;20053;-66
2022/02/20 04:10:47;;;;;;;110.72;61.33;;;;;;;;;;4986032;28;20035;-66
2022/02/20 04:13:13;;;;;;;107.85;61.03;;;;;;;;;;4987100;28;20037;-66
2022/02/20 04:15:39;;;;;;;105.30;59.50;;;;;;;;;;4988017;28;20030;-66
2022/02/20 04:18:05;;;;;;;104.15;58.83;;;;;;;;;;4987420;28;20033;-66
2022/02/20 04:20:31;;;;;;;105.97;58.55;;;;;;;;;;4983884;28;20038;-66
2022/02/20 04:22:57;;;;;;;109.38;59.28;;;;;;;;;;4982194;28;20027;-66
2022/02/20 04:25:23;;;;;;;106.22;60.50;;;;;;;;;;4987914;28;20101;-66
2022/02/20 04:27:49;;;;;;;101.30;58.17;;;;;;;;;;4976837;28;20042;-66
2022/02/20 04:30:16;;;;;;;106.15;59.60;;;;;;;;;;4989689;28;20031;-66
2022/02/20 04:32:42;;;;;;;102.90;58.47;;;;;;;;;;4989046;28;20037;-66
2022/02/20 04:35:09;;;;;;;100.50;56.70;;;;;;;;;;4989630;28;20050;-65
2022/02/20 04:37:35;;;;;;;106.43;56.30;;;;;;;;;;4977463;28;20145;-66
2022/02/20 04:49:12;;;;;;;100.57;55.33;;;;;;;;;;4973513;28;20068;-66
2022/02/20 04:51:38;;;;;;;105.15;55.03;;;;;;;;;;4990658;28;20030;-66
2022/02/20 04:54:04;;;;;;;104.82;54.53;;;;;;;;;;4987629;28;20041;-65
2022/02/20 04:56:30;;;;;;;112.35;57.70;;;;;;;;;;4986507;28;20491;-65
2022/02/20 04:58:56;;;;;;;104.28;56.25;;;;;;;;;;4981151;28;20050;-65
2022/02/20 05:01:24;;;;;;;102.93;55.53;;;;;;;;;;4986963;28;20121;-65
2022/02/20 05:03:50;;;;;;;101.75;54.95;;;;;;;;;;4984406;28;20031;-66
2022/02/20 05:06:27;;;;;;;101.88;54.92;;;;;;;;;;4985146;28;20058;-66
2022/02/20 05:08:55;;;;;;;104.35;55.78;;;;;;;;;;4988315;28;20042;-65
2022/02/20 05:11:23;;;;;;;99.93;52.17;;;;;;;;;;4990464;28;20117;-65
2022/02/20 05:13:50;;;;;;;110.47;56.60;;;;;;;;;;4980555;28;20109;-65
2022/02/20 05:16:16;;;;;;;123.85;61.22;;;;;;;;;;4987523;28;20027;-65
2022/02/20 05:18:45;;;;;;;124.22;59.80;;;;;;;;;;4988718;28;20535;-65
2022/02/20 05:21:11;;;;;;;124.53;61.22;;;;;;;;;;4979176;28;20080;-65
2022/02/20 05:23:37;;;;;;;130.68;62.65;;;;;;;;;;4993029;28;20022;-66
2022/02/20 05:26:03;;;;;;;132.63;61.22;;;;;;;;;;4982019;28;20114;-65
2022/02/20 05:28:29;;;;;;;130.80;60.92;;;;;;;;;;4986000;28;20078;-66
2022/02/20 05:30:55;;;;;;;129.07;60.13;;;;;;;;;;4988599;28;20033;-65
2022/02/20 05:33:21;;;;;;;134.40;60.85;;;;;;;;;;4992188;28;20042;-65
2022/02/20 05:35:47;;;;;;;130.02;59.42;;;;;;;;;;4989735;28;20023;-66
2022/02/20 05:38:16;;;;;;;124.05;57.00;;;;;;;;;;4992574;28;20038;-65
2022/02/20 05:40:42;;;;;;;137.15;57.90;;;;;;;;;;4993176;28;20441;-65
2022/02/20 05:43:08;;;;;;;140.13;58.72;;;;;;;;;;4993545;28;20121;-66
2022/02/20 05:45:34;;;;;;;130.70;58.10;;;;;;;;;;4980528;28;20027;-66
2022/02/20 05:48:00;;;;;;;123.88;57.42;;;;;;;;;;4985190;28;20391;-65
2022/02/20 05:50:26;;;;;;;126.60;58.08;;;;;;;;;;4981492;28;20449;-65
2022/02/20 05:52:52;;;;;;;121.95;55.80;;;;;;;;;;4982250;28;20062;-65
2022/02/20 05:55:18;;;;;;;119.60;56.22;;;;;;;;;;4991935;28;20118;-65
2022/02/20 05:58:02;;;;;;;115.85;53.55;;;;;;;;;;4981426;28;20058;-65
2022/02/20 06:00:28;;;;;;;117.43;56.40;;;;;;;;;;4982053;28;20042;-65
2022/02/20 06:02:55;;;;;;;116.07;55.97;;;;;;;;;;4989842;28;20122;-65
2022/02/20 06:05:21;;;;;;;118.50;55.28;;;;;;;;;;4990510;28;20030;-65
2022/02/20 06:07:47;;;;;;;114.40;54.00;;;;;;;;;;4992409;28;20121;-65
2022/02/20 06:10:14;;;;;;;108.55;53.58;;;;;;;;;;4992108;28;20042;-65
2022/02/20 06:12:40;;;;;;;112.28;52.83;;;;;;;;;;4973140;28;20035;-65
2022/02/20 06:15:06;;;;;;;110.07;53.30;;;;;;;;;;4982489;28;20092;-65
2022/02/20 06:17:33;;;;;;;103.82;50.78;;;;;;;;;;4988220;28;20031;-66
2022/02/20 06:19:59;;;;;;;111.55;54.60;;;;;;;;;;4985569;28;20050;-66
2022/02/20 06:22:25;;;;;;;112.45;52.53;;;;;;;;;;4992366;28;20502;-66
2022/02/20 06:24:51;;;;;;;100.20;52.03;;;;;;;;;;4987700;28;20027;-66
2022/02/20 06:27:54;;;;;;;102.40;49.83;;;;;;;;;;4989959;28;20035;-65
2022/02/20 06:30:20;;;;;;;93.32;48.13;;;;;;;;;;4980767;28;20485;-66
2022/02/20 06:32:46;;;;;;;101.75;50.15;;;;;;;;;;4990590;28;20468;-65
2022/02/20 06:35:12;;;;;;;96.03;48.10;;;;;;;;;;4989477;28;20080;-65
2022/02/20 06:37:38;;;;;;;101.13;49.20;;;;;;;;;;4990537;28;20369;-66
2022/02/20 06:40:05;;;;;;;102.20;49.42;;;;;;;;;;4979034;28;20135;-65
2022/02/20 06:42:31;;;;;;;101.03;48.45;;;;;;;;;;4992651;28;20590;-65
2022/02/20 06:44:57;;;;;;;100.15;47.72;;;;;;;;;;4987315;28;20519;-64
2022/02/20 06:47:23;;;;;;;93.03;45.00;;;;;;;;;;4991883;28;20035;-65
2022/02/20 06:49:49;;;;;;;94.68;47.25;;;;;;;;;;4987513;28;20015;-65
2022/02/20 06:52:15;;;;;;;89.78;42.17;;;;;;;;;;4986974;28;20053;-65
2022/02/20 06:54:41;;;;;;;87.88;43.03;;;;;;;;;;4985600;28;20022;-65
2022/02/20 06:57:07;;;;;;;78.68;40.17;;;;;;;;;;4991838;28;20033;-65
2022/02/20 06:59:33;;;;;;;86.22;40.78;;;;;;;;;;4988946;28;20047;-65
2022/02/20 07:05:03;;;;;;;83.38;40.00;;;;;;;;;;4981204;28;20510;-65
2022/02/20 07:07:29;;;;;;;78.05;39.50;;;;;;;;;;4990077;28;20094;-65
2022/02/20 07:09:55;;;;;;;84.10;41.88;;;;;;;;;;4990433;28;20036;-65
2022/02/20 07:12:21;;;;;;;77.70;39.97;;;;;;;;;;4991020;28;20038;-65
2022/02/20 07:14:47;;;;;;;78.65;41.55;;;;;;;;;;4986540;28;20030;-65
2022/02/20 07:17:13;;;;;;;77.13;40.78;;;;;;;;;;4980496;28;20499;-65
2022/02/20 07:19:39;;;;;;;71.18;37.70;;;;;;;;;;4983872;28;20026;-65
2022/02/20 07:22:06;;;;;;;77.30;40.08;;;;;;;;;;4991999;28;20031;-65
2022/02/20 07:24:32;;;;;;;67.20;38.17;;;;;;;;;;4988124;28;20035;-66
2022/02/20 07:26:59;;;;;;;69.65;36.63;;;;;;;;;;4972801;28;20046;-65
2022/02/20 07:29:25;;;;;;;71.35;37.30;;;;;;;;;;4983056;28;20061;-65
2022/02/20 07:31:51;;;;;;;69.05;36.88;;;;;;;;;;4985343;28;20054;-65
2022/02/20 07:34:17;;;;;;;63.25;35.58;;;;;;;;;;4989972;28;20034;-65
2022/02/20 07:36:43;;;;;;;67.68;35.17;;;;;;;;;;4980679;28;20034;-65
2022/02/20 07:39:09;;;;;;;66.30;35.70;;;;;;;;;;4991953;28;20394;-65
2022/02/20 07:41:36;;;;;;;62.55;36.50;;;;;;;;;;4989601;28;20034;-65
2022/02/20 07:44:02;;;;;;;52.97;33.30;;;;;;;;;;4989283;28;20065;-65
2022/02/20 07:46:28;;;;;;;60.90;34.72;;;;;;;;;;4989568;28;20041;-65
2022/02/20 07:48:57;;;;;;;57.05;33.03;;;;;;;;;;4988667;28;20038;-65
2022/02/20 07:51:23;;;;;;;58.58;34.05;;;;;;;;;;4976716;28;20031;-65
2022/02/20 07:53:49;;;;;;;55.42;33.35;;;;;;;;;;4990807;28;20039;-67
2022/02/20 07:56:16;;;;;;;52.28;32.92;;;;;;;;;;4979166;28;20118;-65
2022/02/20 07:58:43;;;;;;;53.90;32.38;;;;;;;;;;4988480;28;20041;-65
2022/02/20 08:01:10;;;;;;;52.88;33.55;;;;;;;;;;4985869;28;20512;-65
2022/02/20 08:03:36;;;;;;;56.47;33.95;;;;;;;;;;4981069;28;20031;-65
2022/02/20 08:06:03;;;;;;;57.67;37.35;;;;;;;;;;4989861;28;20039;-65
2022/02/20 08:08:29;;;;;;;61.70;39.42;;;;;;;;;;4986899;28;20392;-66
2022/02/20 08:10:56;;;;;;;55.50;34.40;;;;;;;;;;4979447;28;20518;-65
2022/02/20 08:13:22;;;;;;;58.92;36.00;;;;;;;;;;4984845;28;20091;-65
2022/02/20 08:15:48;;;;;;;57.10;36.00;;;;;;;;;;4985375;28;20071;-65
2022/02/20 08:18:14;;;;;;;59.67;35.92;;;;;;;;;;4984380;28;20062;-65
2022/02/20 08:20:44;;;;;;;59.83;36.53;;;;;;;;;;4981821;28;20109;-64
2022/02/20 08:23:11;;;;;;;55.05;36.55;;;;;;;;;;4955070;28;20031;-65
2022/02/20 08:25:43;;;;;;;63.08;37.55;;;;;;;;;;4986025;28;20034;-65
2022/02/20 08:28:11;;;;;;;58.58;37.85;;;;;;;;;;4977405;28;20034;-65
2022/02/20 08:30:37;;;;;;;53.63;35.38;;;;;;;;;;4988056;28;20040;-64
2022/02/20 08:33:04;;;;;;;58.03;36.33;;;;;;;;;;4990919;28;20616;-65
2022/02/20 08:35:39;;;;;;;53.30;35.08;;;;;;;;;;4989947;28;20026;-65
2022/02/20 08:38:08;;;;;;;57.35;36.83;;;;;;;;;;4989564;28;20068;-64
2022/02/20 08:40:36;;;;;;;55.03;35.67;;;;;;;;;;4989871;28;20540;-64
2022/02/20 08:43:03;;;;;;;54.17;34.83;;;;;;;;;;4990498;28;20493;-65
2022/02/20 08:45:29;;;;;;;53.22;35.90;;;;;;;;;;4987975;28;20428;-64
2022/02/20 08:47:55;;;;;;;50.75;32.58;;;;;;;;;;4987693;28;20400;-65
2022/02/20 08:50:21;;;;;;;44.08;30.65;;;;;;;;;;4989320;28;20031;-64
2022/02/20 08:52:49;;;;;;;48.15;30.88;;;;;;;;;;4989475;28;20037;-64
2022/02/20 08:55:15;;;;;;;43.72;29.67;;;;;;;;;;4988959;28;20113;-64
2022/02/20 08:57:43;;;;;;;41.72;27.55;;;;;;;;;;4975895;28;20031;-65
2022/02/20 09:00:10;;;;;;;40.08;28.15;;;;;;;;;;4988681;28;20038;-65
2022/02/20 09:05:39;;;;;;;37.25;25.95;;;;;;;;;;4983139;28;20034;-65
2022/02/20 09:08:05;;;;;;;38.63;27.52;;;;;;;;;;4988569;28;20548;-65
2022/02/20 09:10:31;;;;;;;38.63;27.50;;;;;;;;;;4989504;28;20026;-65
2022/02/20 09:12:57;;;;;;;37.28;26.70;;;;;;;;;;4989499;28;20152;-64
2022/02/20 09:15:23;;;;;;;34.60;25.67;;;;;;;;;;4987301;28;20062;-63
2022/02/20 09:17:50;;;;;;;35.90;26.33;;;;;;;;;;4969993;28;20559;-64
2022/02/20 09:20:16;;;;;;;33.83;24.52;;;;;;;;;;4987675;28;20054;-64
2022/02/20 09:22:43;;;;;;;31.33;23.95;;;;;;;;;;4981398;28;20035;-64
2022/02/20 09:25:09;;;;;;;34.10;24.98;;;;;;;;;;4984957;28;20106;-64
2022/02/20 09:27:36;;;;;;;30.90;23.23;;;;;;;;;;4984713;28;20045;-64
2022/02/20 09:30:02;;;;;;;31.00;23.17;;;;;;;;;;4988344;28;20038;-63
2022/02/20 09:32:28;;;;;;;29.42;22.75;;;;;;;;;;4989214;28;20472;-63
2022/02/20 09:34:54;;;;;;;31.73;24.67;;;;;;;;;;4983309;28;20084;-64
2022/02/20 09:37:20;;;;;;;30.38;24.13;;;;;;;;;;4983601;28;20348;-63
2022/02/20 09:39:47;;;;;;;31.15;22.67;;;;;;;;;;4971776;28;20027;-65
2022/02/20 09:42:15;;;;;;;32.03;22.80;;;;;;;;;;4970758;28;20039;-65
2022/02/20 09:44:42;;;;;;;32.50;23.20;;;;;;;;;;4970590;28;20027;-65
2022/02/20 09:47:09;;;;;;;32.25;22.92;;;;;;;;;;4982637;28;20038;-65
2022/02/20 09:49:35;;;;;;;29.50;22.77;;;;;;;;;;4979653;28;20035;-65
2022/02/20 09:52:01;;;;;;;29.88;21.75;;;;;;;;;;4981984;28;20026;-65
2022/02/20 09:54:27;;;;;;;31.38;21.77;;;;;;;;;;4990147;28;20472;-65
2022/02/20 09:56:53;;;;;;;30.75;19.95;;;;;;;;;;4987564;28;20099;-65
2022/02/20 09:59:19;;;;;;;27.33;19.55;;;;;;;;;;4989084;28;20088;-64
2022/02/20 10:04:50;;;;;;;25.30;16.83;;;;;;;;;;4973643;28;20030;-65
2022/02/20 10:07:25;;;;;;;23.75;16.65;;;;;;;;;;4989269;28;20035;-65
2022/02/20 10:09:51;;;;;;;21.60;15.10;;;;;;;;;;4978601;28;20022;-65
2022/02/20 10:12:19;;;;;;;21.83;16.65;;;;;;;;;;4993383;28;20062;-65
2022/02/20 10:14:45;;;;;;;25.13;17.27;;;;;;;;;;4992072;28;20508;-65
2022/02/20 10:17:30;;;;;;;22.50;16.55;;;;;;;;;;4993489;28;20477;-64
2022/02/20 10:19:58;;;;;;;21.77;16.42;;;;;;;;;;4991234;28;20030;-64
2022/02/20 10:22:35;;;;;;;20.67;15.13;;;;;;;;;;4980738;28;20023;-65
2022/02/20 10:25:12;;;;;;;22.42;17.17;;;;;;;;;;4982205;28;20117;-65
2022/02/20 10:27:51;;;;;;;20.67;17.17;;;;;;;;;;4990498;28;20043;-65
2022/02/20 10:36:44;;;;;;;26.73;17.48;;;;;;;;;;4984071;28;20084;-66
2022/02/20 10:39:19;;;;;;;22.40;16.38;;;;;;;;;;4982720;28;20035;-66
2022/02/20 10:41:45;;;;;;;24.17;17.55;;;;;;;;;;4990176;28;20030;-66
2022/02/20 10:44:11;;;;;;;25.25;18.70;;;;;;;;;;4992879;28;20050;-66
2022/02/20 10:46:37;;;;;;;22.92;18.30;;;;;;;;;;4990743;28;20539;-66
2022/02/20 10:49:03;;;;;;;21.75;17.65;;;;;;;;;;4992827;28;20499;-66
2022/02/20 10:51:39;;;;;;;21.80;16.15;;;;;;;;;;4991939;28;20058;-66
2022/02/20 10:54:05;;;;;;;22.77;16.60;;;;;;;;;;4992653;28;20038;-66
2022/02/20 10:56:40;;;;;;;21.65;17.10;;;;;;;;;;4990924;28;20023;-66
2022/02/20 10:59:07;;;;;;;23.23;16.63;;;;;;;;;;4977719;28;20067;-65
2022/02/20 11:01:33;;;;;;;24.85;17.98;;;;;;;;;;4974437;28;20038;-66
2022/02/20 11:04:02;;;;;;;26.95;18.30;;;;;;;;;;4972991;28;20110;-66
2022/02/20 11:06:29;;;;;;;25.00;17.77;;;;;;;;;;4983286;28;20152;-66
2022/02/20 11:08:56;;;;;;;26.45;17.63;;;;;;;;;;4984327;28;20084;-66
2022/02/20 11:11:42;;;;;;;23.52;16.67;;;;;;;;;;4981593;28;20038;-66
2022/02/20 11:14:12;;;;;;;26.45;18.27;;;;;;;;;;4973523;28;20034;-66
2022/02/20 11:16:40;;;;;;;27.85;20.23;;;;;;;;;;4980192;28;20037;-66
2022/02/20 11:19:06;;;;;;;27.20;18.55;;;;;;;;;;4991377;28;20038;-66
2022/02/20 11:21:37;;;;;;;28.60;19.00;;;;;;;;;;4981958;28;20058;-66
2022/02/20 11:24:05;;;;;;;28.55;20.10;;;;;;;;;;4972495;28;20515;-66
2022/02/20 11:26:36;;;;;;;28.92;18.95;;;;;;;;;;4988395;28;20455;-66
2022/02/20 11:29:03;;;;;;;26.83;18.52;;;;;;;;;;4990297;28;20044;-66
2022/02/20 11:31:29;;;;;;;30.50;19.75;;;;;;;;;;4976892;28;20031;-65
2022/02/20 11:33:56;;;;;;;25.70;18.85;;;;;;;;;;4972664;28;20031;-66
2022/02/20 11:36:27;;;;;;;31.95;19.75;;;;;;;;;;4979700;28;20038;-67
2022/02/20 11:39:02;;;;;;;27.80;20.23;;;;;;;;;;4990713;28;20018;-66
2022/02/20 11:41:28;;;;;;;29.40;20.92;;;;;;;;;;4991329;28;20096;-67
2022/02/20 11:43:56;;;;;;;29.85;22.70;;;;;;;;;;4991998;28;20086;-67
2022/02/20 11:46:23;;;;;;;32.55;22.73;;;;;;;;;;4989390;28;20091;-67
2022/02/20 11:49:04;;;;;;;30.25;22.35;;;;;;;;;;4974134;28;20047;-67
2022/02/20 11:51:31;;;;;;;33.45;23.45;;;;;;;;;;4977987;28;20037;-66
2022/02/20 11:54:16;;;;;;;35.15;23.90;;;;;;;;;;4984156;28;20040;-66
2022/02/20 11:56:43;;;;;;;36.15;24.13;;;;;;;;;;4980382;28;20062;-65
2022/02/20 11:59:15;;;;;;;34.78;23.20;;;;;;;;;;4991551;28;20050;-66
2022/02/20 12:02:03;;;;;;;31.75;23.35;;;;;;;;;;4990929;28;20043;-66
2022/02/20 12:04:49;;;;;;;30.60;23.45;;;;;;;;;;4983801;28;20551;-66
2022/02/20 12:07:27;;;;;;;32.03;22.83;;;;;;;;;;4986187;28;20066;-66
2022/02/20 12:10:13;;;;;;;36.42;24.85;;;;;;;;;;4991333;28;20045;-66
2022/02/20 12:12:39;;;;;;;40.28;25.25;;;;;;;;;;4990570;28;20181;-66
2022/02/20 12:15:24;;;;;;;35.42;24.60;;;;;;;;;;4990001;28;20058;-66
2022/02/20 12:18:03;;;;;;;38.42;25.45;;;;;;;;;;4974487;28;20510;-66
2022/02/20 12:20:47;;;;;;;40.45;26.73;;;;;;;;;;4984322;28;20063;-66
2022/02/20 12:23:36;;;;;;;39.33;25.52;;;;;;;;;;4990623;28;20541;-67
2022/02/20 12:26:07;;;;;;;34.88;24.02;;;;;;;;;;4979077;28;20047;-65
2022/02/20 12:28:34;;;;;;;37.10;25.13;;;;;;;;;;4991286;28;20095;-65
2022/02/20 12:31:29;;;;;;;39.22;25.75;;;;;;;;;;4989663;28;20105;-64
2022/02/20 12:33:55;;;;;;;38.15;26.52;;;;;;;;;;4982056;28;20030;-65
2022/02/20 12:36:30;;;;;;;40.78;28.13;;;;;;;;;;4989265;28;20046;-64
2022/02/20 12:38:57;;;;;;;45.15;26.60;;;;;;;;;;4990296;28;20023;-65
2022/02/20 12:41:24;;;;;;;44.28;27.77;;;;;;;;;;4989447;28;20383;-65
2022/02/20 12:43:54;;;;;;;44.53;28.25;;;;;;;;;;4981151;28;20030;-65
2022/02/20 12:46:20;;;;;;;38.65;26.20;;;;;;;;;;4986712;28;20034;-65
2022/02/20 12:48:46;;;;;;;40.00;27.42;;;;;;;;;;4985259;28;20042;-65
2022/02/20 12:51:14;;;;;;;43.63;26.88;;;;;;;;;;4990162;28;20063;-65
2022/02/20 12:53:42;;;;;;;46.65;29.95;;;;;;;;;;4990045;28;20121;-65
2022/02/20 12:56:09;;;;;;;46.67;30.10;;;;;;;;;;4989349;28;20030;-65
2022/02/20 12:58:51;;;;;;;46.33;31.75;;;;;;;;;;4986692;28;20125;-64
2022/02/20 13:01:19;;;;;;;49.50;32.40;;;;;;;;;;4985510;28;20034;-66
2022/02/20 13:03:51;;;;;;;47.50;30.35;;;;;;;;;;4971225;28;20034;-65
2022/02/20 13:06:17;;;;;;;54.17;33.47;;;;;;;;;;4973625;28;20528;-65
2022/02/20 13:08:43;;;;;;;53.10;32.72;;;;;;;;;;4979601;28;20151;-65
2022/02/20 13:11:10;;;;;;;50.53;32.80;;;;;;;;;;4980926;28;20022;-65
2022/02/20 13:13:37;;;;;;;49.95;33.78;;;;;;;;;;4989855;28;20030;-65
2022/02/20 13:16:04;;;;;;;47.45;31.10;;;;;;;;;;4976400;28;20038;-65
2022/02/20 13:18:32;;;;;;;47.55;31.38;;;;;;;;;;4988899;28;20392;-65
2022/02/20 13:21:05;;;;;;;47.90;31.90;;;;;;;;;;4982263;28;20031;-64
2022/02/20 13:23:31;;;;;;;50.10;31.98;;;;;;;;;;4975302;28;20034;-64
2022/02/20 13:26:02;;;;;;;46.47;31.90;;;;;;;;;;4974804;28;20030;-64
2022/02/20 13:28:29;;;;;;;50.78;32.53;;;;;;;;;;4987779;28;20095;-64
2022/02/20 13:30:59;;;;;;;49.28;31.15;;;;;;;;;;4986109;28;20030;-65
2022/02/20 13:33:30;;;;;;;47.13;30.35;;;;;;;;;;4980958;28;20058;-65
2022/02/20 13:35:56;;;;;;;47.03;29.75;;;;;;;;;;4973330;28;20098;-65
2022/02/20 13:38:26;;;;;;;44.22;28.90;;;;;;;;;;4986837;28;20125;-65
2022/02/20 13:40:53;;;;;;;40.35;27.33;;;;;;;;;;4982963;28;20078;-65
2022/02/20 13:43:20;;;;;;;40.95;26.52;;;;;;;;;;4976655;28;20491;-65
2022/02/20 13:45:52;;;;;;;40.22;25.75;;;;;;;;;;4988362;28;20034;-65
2022/02/20 13:48:24;;;;;;;39.67;26.20;;;;;;;;;;4985960;28;20039;-65
2022/02/20 13:50:50;;;;;;;38.45;25.30;;;;;;;;;;4983183;28;20110;-65
2022/02/20 13:53:17;;;;;;;37.80;25.23;;;;;;;;;;4981837;28;20035;-65
2022/02/20 13:55:54;;;;;;;37.50;25.33;;;;;;;;;;4982853;28;20037;-64
2022/02/20 13:58:24;;;;;;;35.53;24.80;;;;;;;;;;4983254;28;20601;-64
2022/02/20 14:00:50;;;;;;;35.80;23.88;;;;;;;;;;4988404;28;20133;-65
2022/02/20 14:03:18;;;;;;;37.35;24.13;;;;;;;;;;4981886;28;20071;-64
2022/02/20 14:05:46;;;;;;;37.45;24.60;;;;;;;;;;4983373;28;20453;-64
2022/02/20 14:08:16;;;;;;;34.85;24.45;;;;;;;;;;4988336;28;20554;-65
2022/02/20 14:10:52;;;;;;;38.03;26.20;;;;;;;;;;4984588;28;20030;-64
2022/02/20 14:13:18;;;;;;;35.92;24.27;;;;;;;;;;4983647;28;20073;-65
2022/02/20 14:15:56;;;;;;;35.33;23.90;;;;;;;;;;4983092;28;20476;-65
2022/02/20 14:18:22;;;;;;;37.67;23.85;;;;;;;;;;4985658;28;20026;-64
2022/02/20 14:20:51;;;;;;;33.83;23.08;;;;;;;;;;4988178;28;20027;-64
2022/02/20 14:23:18;;;;;;;31.30;22.10;;;;;;;;;;4982070;28;20019;-65
2022/02/20 14:28:56;;;;;;;32.78;22.77;;;;;;;;;;4986814;28;20399;-65
2022/02/20 14:31:26;;;;;;;34.05;23.27;;;;;;;;;;4979390;28;20511;-65
2022/02/20 14:33:54;;;;;;;32.88;22.30;;;;;;;;;;4988195;28;20043;-64
2022/02/20 14:36:24;;;;;;;36.25;24.48;;;;;;;;;;4985398;28;20038;-65
2022/02/20 14:38:51;;;;;;;33.70;23.92;;;;;;;;;;4985529;28;20066;-64
2022/02/20 14:41:17;;;;;;;28.13;22.20;;;;;;;;;;4987538;28;20026;-65
2022/02/20 14:43:44;;;;;;;29.10;20.88;;;;;;;;;;4983977;28;20030;-64